createdAt,value
2022-12-17T00:01:09.957Z,-4.90
2022-12-17T00:04:09.635Z,-5.00
2022-12-17T00:06:56.425Z,-5.00
2022-12-17T00:09:45.754Z,-5.10
2022-12-17T00:12:34.818Z,-5.10
2022-12-17T00:15:20.589Z,-5.00
2022-12-17T00:18:06.487Z,-4.90
2022-12-17T00:20:52.291Z,-4.80
2022-12-17T00:23:38.849Z,-4.70
2022-12-17T00:26:25.418Z,-4.70
2022-12-17T00:29:11.011Z,-4.60
2022-12-17T00:31:57.197Z,-4.50
2022-12-17T00:34:42.981Z,-4.40
2022-12-17T00:37:29.216Z,-4.40
2022-12-17T00:40:14.983Z,-4.30
2022-12-17T00:43:00.703Z,-4.30
2022-12-17T00:45:46.534Z,-4.40
2022-12-17T00:48:32.295Z,-4.40
2022-12-17T00:51:17.963Z,-4.40
2022-12-17T00:54:04.057Z,-4.40
2022-12-17T00:56:49.743Z,-4.40
2022-12-17T00:59:35.407Z,-4.50
2022-12-17T01:02:21.206Z,-4.60
2022-12-17T01:05:07.358Z,-4.70
2022-12-17T01:07:53.320Z,-4.80
2022-12-17T01:10:42.049Z,-4.90
2022-12-17T01:13:30.776Z,-5.00
2022-12-17T01:16:25.384Z,-5.20
2022-12-17T01:19:11.578Z,-5.30
2022-12-17T01:21:57.857Z,-5.40
2022-12-17T01:24:44.070Z,-5.40
2022-12-17T01:27:30.154Z,-5.40
2022-12-17T01:30:15.973Z,-5.60
2022-12-17T01:33:02.015Z,-5.70
2022-12-17T01:35:47.756Z,-5.70
2022-12-17T01:38:36.165Z,-5.80
2022-12-17T01:41:23.795Z,-5.80
2022-12-17T01:44:10.204Z,-5.70
2022-12-17T01:47:00.933Z,-5.80
2022-12-17T01:49:47.467Z,-5.80
2022-12-17T01:52:35.969Z,-5.80
2022-12-17T01:55:24.169Z,-5.90
2022-12-17T01:58:10.187Z,-6.00
2022-12-17T02:00:56.022Z,-6.10
2022-12-17T02:03:41.730Z,-6.20
2022-12-17T02:06:40.675Z,-6.30
2022-12-17T02:09:38.967Z,-6.40
2022-12-17T02:12:44.930Z,-6.50
2022-12-17T02:16:00.180Z,-6.60
2022-12-17T02:18:54.006Z,-6.60
2022-12-17T02:21:41.861Z,-6.70
2022-12-17T02:25:11.982Z,-6.80
2022-12-17T02:27:57.646Z,-6.80
2022-12-17T02:30:43.513Z,-6.90
2022-12-17T02:33:32.471Z,-7.00
2022-12-17T02:36:25.318Z,-7.00
2022-12-17T02:39:11.401Z,-7.00
2022-12-17T02:42:09.554Z,-7.10
2022-12-17T02:44:57.462Z,-7.20
2022-12-17T02:47:44.312Z,-7.20
2022-12-17T02:50:31.504Z,-7.20
2022-12-17T02:53:22.199Z,-7.20
2022-12-17T02:56:07.929Z,-7.20
2022-12-17T02:58:56.218Z,-7.30
2022-12-17T03:01:42.187Z,-7.30
2022-12-17T03:04:28.015Z,-7.40
2022-12-17T03:07:13.634Z,-7.40
2022-12-17T03:10:01.289Z,-7.40
2022-12-17T03:12:48.946Z,-7.40
2022-12-17T03:15:34.481Z,-7.50
2022-12-17T03:18:20.160Z,-7.50
2022-12-17T03:21:05.809Z,-7.60
2022-12-17T03:23:51.621Z,-7.60
2022-12-17T03:26:37.522Z,-7.60
2022-12-17T03:29:23.206Z,-7.60
2022-12-17T03:32:08.935Z,-7.70
2022-12-17T03:34:54.602Z,-7.70
2022-12-17T03:37:40.224Z,-7.70
2022-12-17T03:40:26.612Z,-7.70
2022-12-17T03:43:12.234Z,-7.80
2022-12-17T03:45:58.103Z,-7.80
2022-12-17T03:48:43.880Z,-7.80
2022-12-17T03:51:29.663Z,-7.90
2022-12-17T03:54:15.563Z,-7.90
2022-12-17T03:57:01.150Z,-7.90
2022-12-17T03:59:47.162Z,-7.90
2022-12-17T04:02:32.964Z,-8.00
2022-12-17T04:05:20.456Z,-8.00
2022-12-17T04:08:06.922Z,-8.00
2022-12-17T04:10:52.599Z,-8.00
2022-12-17T04:13:41.323Z,-8.00
2022-12-17T04:16:28.666Z,-8.00
2022-12-17T04:19:14.482Z,-8.00
2022-12-17T04:22:00.168Z,-8.00
2022-12-17T04:24:45.842Z,-8.10
2022-12-17T04:27:31.498Z,-8.10
2022-12-17T04:30:16.984Z,-8.20
2022-12-17T04:33:02.933Z,-8.20
2022-12-17T04:35:48.787Z,-8.20
2022-12-17T04:38:34.489Z,-8.10
2022-12-17T04:41:20.197Z,-8.10
2022-12-17T04:44:05.755Z,-8.00
2022-12-17T04:46:51.441Z,-8.10
2022-12-17T04:49:37.200Z,-8.10
2022-12-17T04:52:22.845Z,-8.20
2022-12-17T04:55:08.660Z,-8.20
2022-12-17T04:57:54.482Z,-8.30
2022-12-17T05:00:40.628Z,-8.30
2022-12-17T05:03:31.331Z,-8.30
2022-12-17T05:06:17.564Z,-8.40
2022-12-17T05:09:03.768Z,-8.40
2022-12-17T05:11:50.103Z,-8.50
2022-12-17T05:14:36.237Z,-8.50
2022-12-17T05:17:22.370Z,-8.50
2022-12-17T05:20:08.247Z,-8.50
2022-12-17T05:22:53.887Z,-8.50
2022-12-17T05:25:39.567Z,-8.50
2022-12-17T05:28:25.299Z,-8.50
2022-12-17T05:31:14.357Z,-8.60
2022-12-17T05:34:00.885Z,-8.60
2022-12-17T05:36:47.162Z,-8.60
2022-12-17T05:39:32.727Z,-8.60
2022-12-17T05:42:18.677Z,-8.60
2022-12-17T05:45:04.384Z,-8.60
2022-12-17T05:47:49.968Z,-8.60
2022-12-17T05:50:36.036Z,-8.50
2022-12-17T05:53:25.307Z,-8.60
2022-12-17T05:56:12.616Z,-8.60
2022-12-17T05:58:58.875Z,-8.70
2022-12-17T06:01:44.641Z,-8.80
2022-12-17T06:04:44.066Z,-8.80
2022-12-17T06:07:29.952Z,-8.90
2022-12-17T06:10:15.655Z,-8.80
2022-12-17T06:13:01.587Z,-8.90
2022-12-17T06:15:47.392Z,-8.90
2022-12-17T06:18:33.286Z,-8.90
2022-12-17T06:21:19.177Z,-8.80
2022-12-17T06:24:04.942Z,-8.90
2022-12-17T06:26:50.796Z,-8.90
2022-12-17T06:29:36.531Z,-8.90
2022-12-17T06:32:22.525Z,-8.90
2022-12-17T06:35:08.364Z,-8.90
2022-12-17T06:37:54.117Z,-9.00
2022-12-17T06:40:39.993Z,-9.00
2022-12-17T06:43:40.958Z,-9.00
2022-12-17T06:46:26.653Z,-9.00
2022-12-17T06:49:12.619Z,-9.00
2022-12-17T06:51:58.322Z,-9.00
2022-12-17T06:54:44.226Z,-8.90
2022-12-17T06:57:29.853Z,-8.90
2022-12-17T07:00:15.641Z,-8.80
2022-12-17T07:03:01.602Z,-8.80
2022-12-17T07:05:47.195Z,-8.80
2022-12-17T07:08:33.134Z,-8.90
2022-12-17T07:11:19.376Z,-8.90
2022-12-17T07:14:05.762Z,-8.90
2022-12-17T07:16:51.888Z,-9.00
2022-12-17T07:19:37.865Z,-8.90
2022-12-17T07:22:23.412Z,-8.80
2022-12-17T07:25:09.208Z,-8.80
2022-12-17T07:27:54.770Z,-8.70
2022-12-17T07:30:40.596Z,-8.70
2022-12-17T07:33:28.856Z,-8.60
2022-12-17T07:36:14.974Z,-8.60
2022-12-17T07:39:00.887Z,-8.60
2022-12-17T07:41:46.414Z,-8.60
2022-12-17T07:44:32.609Z,-8.50
2022-12-17T07:47:18.217Z,-8.40
2022-12-17T07:50:03.811Z,-8.40
2022-12-17T07:52:49.494Z,-8.30
2022-12-17T07:55:35.282Z,-8.20
2022-12-17T07:58:23.877Z,-8.20
2022-12-17T08:01:10.316Z,-8.10
2022-12-17T08:03:56.324Z,-8.10
2022-12-17T08:06:42.139Z,-8.10
2022-12-17T08:09:28.001Z,-8.10
2022-12-17T08:12:13.564Z,-8.10
2022-12-17T08:14:59.479Z,-8.20
2022-12-17T08:17:45.562Z,-8.10
2022-12-17T08:20:31.653Z,-8.00
2022-12-17T08:23:22.160Z,-7.90
2022-12-17T08:26:08.364Z,-7.80
2022-12-17T08:28:54.525Z,-7.70
2022-12-17T08:31:42.704Z,-7.70
2022-12-17T08:34:28.500Z,-7.60
2022-12-17T08:37:14.734Z,-7.50
2022-12-17T08:40:00.456Z,-7.50
2022-12-17T08:42:46.078Z,-7.50
2022-12-17T08:45:31.779Z,-7.50
2022-12-17T08:48:25.519Z,-7.40
2022-12-17T08:51:12.314Z,-7.30
2022-12-17T08:53:57.946Z,-7.30
2022-12-17T08:56:44.181Z,-7.20
2022-12-17T08:59:30.272Z,-7.20
2022-12-17T09:02:16.214Z,-7.10
2022-12-17T09:05:02.044Z,-7.00
2022-12-17T09:07:48.312Z,-6.90
2022-12-17T09:10:35.955Z,-6.80
2022-12-17T09:13:22.699Z,-6.80
2022-12-17T09:16:15.677Z,-6.70
2022-12-17T09:19:02.044Z,-6.70
2022-12-17T09:21:50.022Z,-6.80
2022-12-17T09:24:35.803Z,-6.50
2022-12-17T09:27:21.893Z,-6.30
2022-12-17T09:30:07.781Z,-6.40
2022-12-17T09:32:53.349Z,-6.30
2022-12-17T09:35:39.034Z,-6.10
2022-12-17T09:38:24.752Z,-5.80
2022-12-17T09:41:10.697Z,-5.70
2022-12-17T09:44:24.832Z,-5.60
2022-12-17T09:47:38.350Z,-5.40
2022-12-17T09:50:30.789Z,-5.10
2022-12-17T09:53:19.708Z,-5.00
2022-12-17T09:56:10.031Z,-5.00
2022-12-17T09:58:59.785Z,-4.80
2022-12-17T10:01:51.636Z,-4.70
2022-12-17T10:04:46.585Z,-4.50
2022-12-17T10:07:35.920Z,-4.30
2022-12-17T10:10:34.835Z,-4.10
2022-12-17T10:13:20.471Z,-3.90
2022-12-17T10:16:06.076Z,-3.90
2022-12-17T10:18:51.954Z,-4.40
2022-12-17T10:21:38.606Z,-4.20
2022-12-17T10:24:26.231Z,-4.10
2022-12-17T10:27:12.001Z,-3.60
2022-12-17T10:30:00.187Z,-3.40
2022-12-17T10:32:46.845Z,-3.30
2022-12-17T10:35:46.036Z,-2.80
2022-12-17T10:38:39.746Z,-2.70
2022-12-17T10:41:48.369Z,-1.60
2022-12-17T10:44:46.822Z,-0.50
2022-12-17T10:47:41.949Z,0.00
2022-12-17T10:50:35.770Z,-0.60
2022-12-17T10:53:33.675Z,-0.20
2022-12-17T10:56:20.241Z,0.70
2022-12-17T10:59:12.028Z,1.40
2022-12-17T11:02:00.264Z,2.10
2022-12-17T11:04:46.162Z,3.10
2022-12-17T11:07:39.143Z,2.30
2022-12-17T11:10:39.333Z,2.80
2022-12-17T11:13:31.135Z,3.30
2022-12-17T11:16:18.814Z,2.30
2022-12-17T11:19:10.818Z,3.20
2022-12-17T11:22:07.762Z,3.70
2022-12-17T11:25:24.830Z,4.40
2022-12-17T11:28:20.621Z,5.00
2022-12-17T11:31:19.685Z,5.20
2022-12-17T11:34:34.562Z,5.90
2022-12-17T11:37:32.898Z,6.00
2022-12-17T11:40:57.497Z,6.80
2022-12-17T11:43:51.394Z,7.10
2022-12-17T11:46:49.144Z,6.60
2022-12-17T11:50:04.489Z,7.00
2022-12-17T11:53:06.184Z,7.10
2022-12-17T11:56:13.254Z,7.20
2022-12-17T11:59:28.708Z,7.30
2022-12-17T12:03:13.241Z,7.80
2022-12-17T12:06:04.479Z,7.60
2022-12-17T12:09:09.177Z,7.60
2022-12-17T12:12:27.689Z,7.10
2022-12-17T12:16:10.983Z,7.10
2022-12-17T12:19:11.903Z,6.80
2022-12-17T12:22:18.077Z,6.20
2022-12-17T12:25:47.539Z,5.90
2022-12-17T12:28:40.220Z,5.80
2022-12-17T12:31:42.117Z,5.40
2022-12-17T12:34:43.176Z,5.60
2022-12-17T12:37:35.648Z,5.80
2022-12-17T12:40:36.968Z,5.30
2022-12-17T12:43:42.696Z,6.40
2022-12-17T12:46:34.945Z,7.40
2022-12-17T12:49:26.628Z,8.40
2022-12-17T12:52:14.319Z,8.70
2022-12-17T12:55:06.209Z,9.00
2022-12-17T12:58:14.053Z,9.50
2022-12-17T13:01:06.017Z,8.90
2022-12-17T13:03:56.506Z,9.40
2022-12-17T13:06:49.260Z,9.20
2022-12-17T13:09:16.815Z,9.20
2022-12-17T13:12:00.019Z,9.20
2022-12-17T13:14:48.690Z,9.60
2022-12-17T13:17:18.905Z,9.80
2022-12-17T13:20:07.728Z,10.40
2022-12-17T13:22:35.021Z,10.10
2022-12-17T13:25:22.566Z,9.30
2022-12-17T13:27:50.763Z,7.80
2022-12-17T13:30:18.067Z,8.40
2022-12-17T13:32:58.324Z,9.10
2022-12-17T13:35:48.968Z,8.40
2022-12-17T13:38:35.347Z,8.30
2022-12-17T13:41:09.825Z,8.20
2022-12-17T13:43:58.830Z,7.30
2022-12-17T13:46:36.164Z,7.40
2022-12-17T13:49:06.764Z,6.70
2022-12-17T13:51:35.377Z,5.80
2022-12-17T13:54:04.673Z,6.60
2022-12-17T13:56:36.201Z,6.80
2022-12-17T13:59:09.300Z,7.40
2022-12-17T14:01:49.061Z,8.00
2022-12-17T14:04:28.158Z,9.10
2022-12-17T14:07:03.339Z,9.10
2022-12-17T14:09:42.864Z,9.10
2022-12-17T14:12:22.293Z,9.10
2022-12-17T14:15:01.309Z,9.20
2022-12-17T14:17:36.111Z,9.10
2022-12-17T14:20:12.822Z,9.30
2022-12-17T14:22:50.778Z,9.00
2022-12-17T14:25:29.504Z,9.40
2022-12-17T14:28:00.502Z,8.80
2022-12-17T14:31:02.507Z,8.20
2022-12-17T14:33:34.064Z,6.90
2022-12-17T14:36:06.520Z,6.60
2022-12-17T14:38:39.166Z,5.50
2022-12-17T14:41:31.841Z,4.90
2022-12-17T14:44:00.597Z,4.30
2022-12-17T14:46:29.531Z,4.00
2022-12-17T14:49:02.627Z,3.70
2022-12-17T14:51:40.250Z,3.20
2022-12-17T14:54:32.270Z,2.70
2022-12-17T14:57:00.587Z,2.30
2022-12-17T14:59:35.041Z,1.60
2022-12-17T15:02:12.538Z,1.10
2022-12-17T15:04:40.522Z,0.50
2022-12-17T15:07:10.895Z,-0.10
2022-12-17T15:09:42.192Z,-0.60
2022-12-17T15:12:10.168Z,-1.10
2022-12-17T15:14:37.430Z,-1.50
2022-12-17T15:17:05.463Z,-1.90
2022-12-17T15:19:32.720Z,-2.30
2022-12-17T15:21:59.998Z,-2.60
2022-12-17T15:24:27.249Z,-2.90
2022-12-17T15:26:55.309Z,-3.10
2022-12-17T15:29:22.586Z,-3.30
2022-12-17T15:31:50.060Z,-3.50
2022-12-17T15:34:17.308Z,-3.70
2022-12-17T15:36:44.488Z,-3.90
2022-12-17T15:39:11.774Z,-4.00
2022-12-17T15:41:57.443Z,-4.20
2022-12-17T15:44:24.692Z,-4.30
2022-12-17T15:46:52.001Z,-4.40
2022-12-17T15:49:19.190Z,-4.50
2022-12-17T15:51:47.071Z,-4.60
2022-12-17T15:54:14.350Z,-4.70
2022-12-17T15:56:41.569Z,-4.80
2022-12-17T15:59:08.847Z,-4.80
2022-12-17T16:01:36.734Z,-4.80
2022-12-17T16:04:04.308Z,-4.80
2022-12-17T16:06:31.553Z,-4.90
2022-12-17T16:08:58.851Z,-5.00
2022-12-17T16:11:26.028Z,-5.00
2022-12-17T16:13:56.806Z,-5.10
2022-12-17T16:16:24.714Z,-5.10
2022-12-17T16:18:52.399Z,-5.20
2022-12-17T16:21:19.661Z,-5.20
2022-12-17T16:23:46.937Z,-5.20
2022-12-17T16:26:14.313Z,-5.30
2022-12-17T16:28:41.673Z,-5.30
2022-12-17T16:31:14.429Z,-5.30
2022-12-17T16:33:43.840Z,-5.40
2022-12-17T16:36:18.385Z,-5.40
2022-12-17T16:38:51.836Z,-5.40
2022-12-17T16:41:20.215Z,-5.50
2022-12-17T16:43:48.402Z,-5.50
2022-12-17T16:46:36.994Z,-5.50
2022-12-17T16:49:05.985Z,-5.60
2022-12-17T16:51:33.708Z,-5.60
2022-12-17T16:54:05.599Z,-5.70
2022-12-17T16:56:38.139Z,-5.70
2022-12-17T16:59:08.418Z,-5.70
2022-12-17T17:01:37.387Z,-5.80
2022-12-17T17:04:07.366Z,-5.80
2022-12-17T17:06:42.404Z,-5.80
2022-12-17T17:09:09.686Z,-5.80
2022-12-17T17:11:37.364Z,-5.90
2022-12-17T17:14:05.536Z,-5.90
2022-12-17T17:16:34.345Z,-6.00
2022-12-17T17:19:02.176Z,-5.90
2022-12-17T17:21:34.698Z,-6.00
2022-12-17T17:24:20.924Z,-6.00
2022-12-17T17:26:50.195Z,-6.00
2022-12-17T17:29:18.072Z,-6.00
2022-12-17T17:32:09.340Z,-6.00
2022-12-17T17:34:33.129Z,-6.00
2022-12-17T17:37:00.442Z,-6.10
2022-12-17T17:39:27.772Z,-6.10
2022-12-17T17:41:55.037Z,-6.20
2022-12-17T17:44:22.232Z,-6.20
2022-12-17T17:46:49.852Z,-6.20
2022-12-17T17:49:17.595Z,-6.30
2022-12-17T17:52:09.575Z,-6.20
2022-12-17T17:54:33.336Z,-6.30
2022-12-17T17:57:01.019Z,-6.30
2022-12-17T17:59:33.285Z,-6.40
2022-12-17T18:02:02.488Z,-6.40
2022-12-17T18:04:30.453Z,-6.30
2022-12-17T18:09:45.054Z,-6.40
2022-12-17T18:12:30.854Z,-6.30
2022-12-17T18:15:14.814Z,-6.40
2022-12-17T18:17:45.427Z,-6.40
2022-12-17T18:20:13.687Z,-6.40
2022-12-17T18:22:41.122Z,-6.40
2022-12-17T18:25:08.600Z,-6.50
2022-12-17T18:27:36.138Z,-6.50
2022-12-17T18:30:03.930Z,-6.50
2022-12-17T18:32:31.198Z,-6.50
2022-12-17T18:34:58.507Z,-6.50
2022-12-17T18:37:25.806Z,-6.50
2022-12-17T18:39:53.087Z,-6.50
2022-12-17T18:42:38.691Z,-6.60
2022-12-17T18:45:06.507Z,-6.60
2022-12-17T18:47:33.864Z,-6.60
2022-12-17T18:50:01.068Z,-6.60
2022-12-17T18:52:28.671Z,-6.70
2022-12-17T18:54:55.915Z,-6.70
2022-12-17T18:57:23.169Z,-6.70
2022-12-17T18:59:50.562Z,-6.80
2022-12-17T19:02:17.900Z,-6.90
2022-12-17T19:04:45.234Z,-6.90
2022-12-17T19:07:12.542Z,-7.00
2022-12-17T19:09:40.612Z,-7.00
2022-12-17T19:12:09.369Z,-7.00
2022-12-17T19:14:37.291Z,-7.00
2022-12-17T19:17:06.075Z,-7.00
2022-12-17T19:19:33.881Z,-7.10
2022-12-17T19:22:02.196Z,-7.10
2022-12-17T19:24:30.308Z,-7.10
2022-12-17T19:26:57.840Z,-7.10
2022-12-17T19:29:25.202Z,-7.00
2022-12-17T19:31:52.984Z,-7.10
2022-12-17T19:34:20.956Z,-7.00
2022-12-17T19:36:48.821Z,-7.00
2022-12-17T19:39:19.765Z,-7.00
2022-12-17T19:41:47.871Z,-7.00
2022-12-17T19:44:17.443Z,-7.00
2022-12-17T19:46:45.357Z,-7.10
2022-12-17T19:49:14.174Z,-7.10
2022-12-17T19:51:43.353Z,-7.10
2022-12-17T19:54:13.334Z,-7.10
2022-12-17T19:56:42.717Z,-7.20
2022-12-17T19:59:11.667Z,-7.20
2022-12-17T20:01:44.955Z,-7.20
2022-12-17T20:04:14.122Z,-7.30
2022-12-17T20:06:42.249Z,-7.30
2022-12-17T20:09:10.088Z,-7.40
2022-12-17T20:11:37.891Z,-7.40
2022-12-17T20:14:17.485Z,-7.50
2022-12-17T20:16:50.855Z,-7.50
2022-12-17T20:19:21.603Z,-7.50
2022-12-17T20:21:51.046Z,-7.40
2022-12-17T20:24:18.748Z,-7.40
2022-12-17T20:26:48.960Z,-7.40
2022-12-17T20:29:16.277Z,-7.40
2022-12-17T20:31:49.382Z,-7.50
2022-12-17T20:34:18.980Z,-7.50
2022-12-17T20:36:49.819Z,-7.50
2022-12-17T20:39:20.690Z,-7.60
2022-12-17T20:41:51.686Z,-7.60
2022-12-17T20:44:19.418Z,-7.60
2022-12-17T20:46:46.684Z,-7.60
2022-12-17T20:49:14.837Z,-7.60
2022-12-17T20:51:42.296Z,-7.60
2022-12-17T20:54:10.306Z,-7.70
2022-12-17T20:56:40.202Z,-7.70
2022-12-17T20:59:09.125Z,-7.70
2022-12-17T21:01:37.273Z,-7.80
2022-12-17T21:04:08.819Z,-7.80
2022-12-17T21:06:41.613Z,-7.80
2022-12-17T21:09:09.274Z,-7.90
2022-12-17T21:11:38.046Z,-7.90
2022-12-17T21:14:08.005Z,-7.90
2022-12-17T21:16:36.963Z,-7.90
2022-12-17T21:19:05.801Z,-7.90
2022-12-17T21:21:35.647Z,-7.90
2022-12-17T21:24:03.151Z,-8.00
2022-12-17T21:26:32.832Z,-7.90
2022-12-17T21:29:01.205Z,-7.90
2022-12-17T21:31:31.248Z,-7.90
2022-12-17T21:34:01.045Z,-7.90
2022-12-17T21:36:31.011Z,-8.00
2022-12-17T21:38:59.170Z,-8.00
2022-12-17T21:41:30.857Z,-8.00
2022-12-17T21:43:59.451Z,-8.00
2022-12-17T21:46:28.409Z,-8.00
2022-12-17T21:48:57.556Z,-7.90
2022-12-17T21:51:25.393Z,-8.00
2022-12-17T21:53:55.270Z,-8.00
2022-12-17T21:56:23.969Z,-8.00
2022-12-17T21:58:57.502Z,-8.00
2022-12-17T22:01:27.874Z,-8.10
2022-12-17T22:03:58.144Z,-8.10
2022-12-17T22:06:28.719Z,-8.10
2022-12-17T22:09:04.208Z,-8.10
2022-12-17T22:11:35.268Z,-8.20
2022-12-17T22:14:07.455Z,-8.20
2022-12-17T22:16:46.793Z,-8.20
2022-12-17T22:19:22.239Z,-8.20
2022-12-17T22:21:56.048Z,-8.20
2022-12-17T22:24:25.976Z,-8.20
2022-12-17T22:27:00.316Z,-8.20
2022-12-17T22:29:47.098Z,-8.20
2022-12-17T22:32:33.135Z,-8.30
2022-12-17T22:36:24.909Z,-8.40
2022-12-17T22:40:21.582Z,-8.40
2022-12-17T22:44:29.878Z,-8.40
2022-12-17T22:44:38.098Z,-8.50
2022-12-17T22:46:17.762Z,-8.50
2022-12-17T22:48:45.394Z,-8.40
2022-12-17T22:51:25.499Z,-8.40
2022-12-17T22:54:09.138Z,-8.40
2022-12-17T22:57:34.426Z,-8.40
2022-12-17T22:59:26.774Z,-8.40
2022-12-17T23:01:54.143Z,-8.40
2022-12-17T23:04:21.550Z,-8.40
2022-12-17T23:06:48.827Z,-8.40
2022-12-17T23:09:19.412Z,-8.50
2022-12-17T23:11:48.826Z,-8.40
2022-12-17T23:14:17.211Z,-8.40
2022-12-17T23:16:44.928Z,-8.40
2022-12-17T23:19:12.976Z,-8.40
2022-12-17T23:21:40.355Z,-8.40
2022-12-17T23:24:08.167Z,-8.40
2022-12-17T23:26:37.125Z,-8.40
2022-12-17T23:29:07.445Z,-8.40
2022-12-17T23:31:40.442Z,-8.40
2022-12-17T23:34:09.202Z,-8.40
2022-12-17T23:36:36.705Z,-8.40
2022-12-17T23:39:04.723Z,-8.50
2022-12-17T23:41:32.486Z,-8.50
2022-12-17T23:44:00.617Z,-8.50
2022-12-17T23:46:30.459Z,-8.40
2022-12-17T23:48:58.284Z,-8.50
2022-12-17T23:51:26.179Z,-8.50
2022-12-17T23:53:53.405Z,-8.50
2022-12-17T23:56:24.046Z,-8.50
2022-12-17T23:58:57.280Z,-8.60
